sensor_id;sensor_type;location;lat;lon;timestamp;P1;durP1;ratioP1;P2;durP2;ratioP2
28483;SDS011;15704;48.834;8.736;2022-09-02T00:00:08;5.68;;;3.65;;
28483;SDS011;15704;48.834;8.736;2022-09-02T00:03:55;5.68;;;3.30;;
28483;SDS011;15704;48.834;8.736;2022-09-02T00:07:39;6.18;;;3.88;;
28483;SDS011;15704;48.834;8.736;2022-09-02T00:11:24;5.07;;;3.35;;
28483;SDS011;15704;48.834;8.736;2022-09-02T00:15:10;6.47;;;3.33;;
28483;SDS011;15704;48.834;8.736;2022-09-02T00:18:53;4.68;;;3.85;;
28483;SDS011;15704;48.834;8.736;2022-09-02T00:22:37;5.40;;;3.50;;
28483;SDS011;15704;48.834;8.736;2022-09-02T00:26:19;7.53;;;3.60;;
28483;SDS011;15704;48.834;8.736;2022-09-02T00:30:03;6.32;;;3.63;;
28483;SDS011;15704;48.834;8.736;2022-09-02T00:33:48;5.15;;;3.67;;
28483;SDS011;15704;48.834;8.736;2022-09-02T00:37:32;4.95;;;3.70;;
28483;SDS011;15704;48.834;8.736;2022-09-02T00:41:18;5.28;;;4.13;;
28483;SDS011;15704;48.834;8.736;2022-09-02T00:45:02;4.57;;;3.85;;
28483;SDS011;15704;48.834;8.736;2022-09-02T00:48:48;4.22;;;3.40;;
28483;SDS011;15704;48.834;8.736;2022-09-02T00:52:38;6.50;;;4.03;;
28483;SDS011;15704;48.834;8.736;2022-09-02T00:56:24;4.00;;;3.38;;
28483;SDS011;15704;48.834;8.736;2022-09-02T01:00:12;6.03;;;3.88;;
28483;SDS011;15704;48.834;8.736;2022-09-02T01:03:59;5.82;;;3.38;;
28483;SDS011;15704;48.834;8.736;2022-09-02T01:07:46;8.20;;;3.70;;
28483;SDS011;15704;48.834;8.736;2022-09-02T01:11:34;4.68;;;3.60;;
28483;SDS011;15704;48.834;8.736;2022-09-02T01:15:19;4.35;;;3.60;;
28483;SDS011;15704;48.834;8.736;2022-09-02T01:19:05;12.05;;;3.90;;
28483;SDS011;15704;48.834;8.736;2022-09-02T01:22:53;7.97;;;4.05;;
28483;SDS011;15704;48.834;8.736;2022-09-02T01:26:38;4.25;;;3.38;;
28483;SDS011;15704;48.834;8.736;2022-09-02T01:30:22;5.18;;;3.72;;
28483;SDS011;15704;48.834;8.736;2022-09-02T01:34:06;4.95;;;3.88;;
28483;SDS011;15704;48.834;8.736;2022-09-02T01:37:48;8.40;;;4.28;;
28483;SDS011;15704;48.834;8.736;2022-09-02T01:41:37;5.47;;;4.00;;
28483;SDS011;15704;48.834;8.736;2022-09-02T01:45:20;8.60;;;4.15;;
28483;SDS011;15704;48.834;8.736;2022-09-02T01:52:45;5.97;;;3.67;;
28483;SDS011;15704;48.834;8.736;2022-09-02T01:56:28;5.70;;;3.55;;
28483;SDS011;15704;48.834;8.736;2022-09-02T02:00:13;5.35;;;3.28;;
28483;SDS011;15704;48.834;8.736;2022-09-02T02:03:57;11.60;;;3.47;;
28483;SDS011;15704;48.834;8.736;2022-09-02T02:07:42;9.38;;;3.30;;
28483;SDS011;15704;48.834;8.736;2022-09-02T02:11:25;5.68;;;3.25;;
28483;SDS011;15704;48.834;8.736;2022-09-02T02:15:09;5.15;;;2.80;;
28483;SDS011;15704;48.834;8.736;2022-09-02T02:18:55;5.22;;;3.05;;
28483;SDS011;15704;48.834;8.736;2022-09-02T02:22:38;6.78;;;3.20;;
28483;SDS011;15704;48.834;8.736;2022-09-02T02:26:21;5.13;;;2.90;;
28483;SDS011;15704;48.834;8.736;2022-09-02T02:30:04;5.20;;;3.10;;
28483;SDS011;15704;48.834;8.736;2022-09-02T02:33:47;4.50;;;3.40;;
28483;SDS011;15704;48.834;8.736;2022-09-02T02:37:32;4.90;;;3.33;;
28483;SDS011;15704;48.834;8.736;2022-09-02T02:41:15;4.22;;;3.25;;
28483;SDS011;15704;48.834;8.736;2022-09-02T02:44:58;4.28;;;3.20;;
28483;SDS011;15704;48.834;8.736;2022-09-02T02:48:41;4.93;;;3.55;;
28483;SDS011;15704;48.834;8.736;2022-09-02T02:52:24;4.90;;;3.50;;
28483;SDS011;15704;48.834;8.736;2022-09-02T02:56:08;6.70;;;3.25;;
28483;SDS011;15704;48.834;8.736;2022-09-02T02:59:51;4.70;;;2.97;;
28483;SDS011;15704;48.834;8.736;2022-09-02T03:03:34;4.97;;;3.90;;
28483;SDS011;15704;48.834;8.736;2022-09-02T03:07:17;4.30;;;3.00;;
28483;SDS011;15704;48.834;8.736;2022-09-02T03:11:00;4.85;;;3.53;;
28483;SDS011;15704;48.834;8.736;2022-09-02T03:14:44;8.18;;;5.03;;
28483;SDS011;15704;48.834;8.736;2022-09-02T03:18:26;3.60;;;2.70;;
28483;SDS011;15704;48.834;8.736;2022-09-02T03:22:09;6.60;;;3.65;;
28483;SDS011;15704;48.834;8.736;2022-09-02T03:25:53;4.53;;;3.28;;
28483;SDS011;15704;48.834;8.736;2022-09-02T03:29:36;7.27;;;3.67;;
28483;SDS011;15704;48.834;8.736;2022-09-02T03:33:20;4.93;;;3.33;;
28483;SDS011;15704;48.834;8.736;2022-09-02T03:37:03;5.32;;;3.45;;
28483;SDS011;15704;48.834;8.736;2022-09-02T03:40:46;5.53;;;3.13;;
28483;SDS011;15704;48.834;8.736;2022-09-02T03:44:29;6.43;;;3.33;;
28483;SDS011;15704;48.834;8.736;2022-09-02T03:48:13;7.07;;;2.88;;
28483;SDS011;15704;48.834;8.736;2022-09-02T03:51:58;7.00;;;3.00;;
28483;SDS011;15704;48.834;8.736;2022-09-02T03:55:41;8.40;;;2.97;;
28483;SDS011;15704;48.834;8.736;2022-09-02T03:59:24;6.67;;;3.20;;
28483;SDS011;15704;48.834;8.736;2022-09-02T04:03:07;5.72;;;2.80;;
28483;SDS011;15704;48.834;8.736;2022-09-02T04:06:49;5.10;;;2.97;;
28483;SDS011;15704;48.834;8.736;2022-09-02T04:10:33;4.38;;;2.85;;
28483;SDS011;15704;48.834;8.736;2022-09-02T04:14:19;5.75;;;2.97;;
28483;SDS011;15704;48.834;8.736;2022-09-02T04:22:39;6.75;;;3.13;;
28483;SDS011;15704;48.834;8.736;2022-09-02T04:26:24;4.75;;;3.33;;
28483;SDS011;15704;48.834;8.736;2022-09-02T04:30:07;6.57;;;3.08;;
28483;SDS011;15704;48.834;8.736;2022-09-02T04:33:50;5.85;;;3.15;;
28483;SDS011;15704;48.834;8.736;2022-09-02T04:37:33;3.88;;;2.72;;
28483;SDS011;15704;48.834;8.736;2022-09-02T04:41:16;6.00;;;3.63;;
28483;SDS011;15704;48.834;8.736;2022-09-02T04:45:02;4.38;;;3.03;;
28483;SDS011;15704;48.834;8.736;2022-09-02T04:48:45;6.85;;;3.38;;
28483;SDS011;15704;48.834;8.736;2022-09-02T04:52:28;7.60;;;3.35;;
28483;SDS011;15704;48.834;8.736;2022-09-02T04:56:12;17.70;;;3.60;;
28483;SDS011;15704;48.834;8.736;2022-09-02T04:59:55;5.97;;;3.42;;
28483;SDS011;15704;48.834;8.736;2022-09-02T05:03:40;5.10;;;3.05;;
28483;SDS011;15704;48.834;8.736;2022-09-02T05:07:23;4.45;;;3.30;;
28483;SDS011;15704;48.834;8.736;2022-09-02T05:11:05;4.75;;;3.65;;
28483;SDS011;15704;48.834;8.736;2022-09-02T05:18:31;6.60;;;3.17;;
28483;SDS011;15704;48.834;8.736;2022-09-02T05:22:16;6.47;;;3.63;;
28483;SDS011;15704;48.834;8.736;2022-09-02T05:26:01;4.40;;;3.00;;
28483;SDS011;15704;48.834;8.736;2022-09-02T05:29:44;5.65;;;3.40;;
28483;SDS011;15704;48.834;8.736;2022-09-02T05:33:27;10.13;;;3.47;;
28483;SDS011;15704;48.834;8.736;2022-09-02T05:37:12;9.57;;;3.53;;
28483;SDS011;15704;48.834;8.736;2022-09-02T05:40:56;10.37;;;3.90;;
28483;SDS011;15704;48.834;8.736;2022-09-02T05:44:40;3.22;;;2.75;;
28483;SDS011;15704;48.834;8.736;2022-09-02T05:48:24;4.25;;;2.92;;
28483;SDS011;15704;48.834;8.736;2022-09-02T05:52:24;3.83;;;2.72;;
28483;SDS011;15704;48.834;8.736;2022-09-02T05:56:08;5.47;;;2.40;;
28483;SDS011;15704;48.834;8.736;2022-09-02T05:59:51;4.10;;;2.65;;
28483;SDS011;15704;48.834;8.736;2022-09-02T06:03:36;2.65;;;2.33;;
28483;SDS011;15704;48.834;8.736;2022-09-02T06:07:21;4.13;;;2.50;;
28483;SDS011;15704;48.834;8.736;2022-09-02T06:11:07;6.78;;;2.53;;
28483;SDS011;15704;48.834;8.736;2022-09-02T06:14:53;2.90;;;2.30;;
28483;SDS011;15704;48.834;8.736;2022-09-02T06:18:35;3.92;;;2.60;;
28483;SDS011;15704;48.834;8.736;2022-09-02T06:22:20;7.70;;;3.20;;
28483;SDS011;15704;48.834;8.736;2022-09-02T06:26:03;6.57;;;2.55;;
28483;SDS011;15704;48.834;8.736;2022-09-02T06:29:47;8.00;;;3.13;;
28483;SDS011;15704;48.834;8.736;2022-09-02T06:33:30;2.40;;;2.20;;
28483;SDS011;15704;48.834;8.736;2022-09-02T06:37:13;6.20;;;2.58;;
28483;SDS011;15704;48.834;8.736;2022-09-02T06:40:56;3.63;;;2.80;;
28483;SDS011;15704;48.834;8.736;2022-09-02T06:44:39;4.88;;;2.97;;
28483;SDS011;15704;48.834;8.736;2022-09-02T06:48:23;3.15;;;2.20;;
28483;SDS011;15704;48.834;8.736;2022-09-02T06:52:06;4.22;;;2.22;;
28483;SDS011;15704;48.834;8.736;2022-09-02T06:55:49;5.32;;;3.00;;
28483;SDS011;15704;48.834;8.736;2022-09-02T06:59:32;4.07;;;2.00;;
28483;SDS011;15704;48.834;8.736;2022-09-02T07:03:16;5.68;;;2.08;;
28483;SDS011;15704;48.834;8.736;2022-09-02T07:07:17;10.43;;;2.20;;
28483;SDS011;15704;48.834;8.736;2022-09-02T07:11:00;3.33;;;1.90;;
28483;SDS011;15704;48.834;8.736;2022-09-02T07:14:42;3.92;;;2.22;;
28483;SDS011;15704;48.834;8.736;2022-09-02T07:18:25;7.43;;;2.13;;
28483;SDS011;15704;48.834;8.736;2022-09-02T07:25:52;6.32;;;2.20;;
28483;SDS011;15704;48.834;8.736;2022-09-02T07:29:36;6.90;;;1.85;;
28483;SDS011;15704;48.834;8.736;2022-09-02T07:33:19;2.38;;;1.88;;
28483;SDS011;15704;48.834;8.736;2022-09-02T07:37:03;7.65;;;1.63;;
28483;SDS011;15704;48.834;8.736;2022-09-02T07:40:51;3.15;;;2.00;;
28483;SDS011;15704;48.834;8.736;2022-09-02T07:44:37;4.28;;;2.58;;
28483;SDS011;15704;48.834;8.736;2022-09-02T07:48:20;6.72;;;2.13;;
28483;SDS011;15704;48.834;8.736;2022-09-02T07:52:02;3.22;;;1.85;;
28483;SDS011;15704;48.834;8.736;2022-09-02T07:55:45;4.05;;;1.80;;
28483;SDS011;15704;48.834;8.736;2022-09-02T07:59:30;2.55;;;1.92;;
28483;SDS011;15704;48.834;8.736;2022-09-02T08:03:13;3.33;;;1.85;;
28483;SDS011;15704;48.834;8.736;2022-09-02T08:06:56;5.18;;;1.90;;
28483;SDS011;15704;48.834;8.736;2022-09-02T08:10:39;7.45;;;2.38;;
28483;SDS011;15704;48.834;8.736;2022-09-02T08:14:23;5.53;;;1.92;;
28483;SDS011;15704;48.834;8.736;2022-09-02T08:18:10;6.15;;;1.50;;
28483;SDS011;15704;48.834;8.736;2022-09-02T08:22:02;9.20;;;1.90;;
28483;SDS011;15704;48.834;8.736;2022-09-02T08:25:46;5.28;;;1.45;;
28483;SDS011;15704;48.834;8.736;2022-09-02T08:29:29;1.83;;;1.65;;
28483;SDS011;15704;48.834;8.736;2022-09-02T08:33:13;5.72;;;1.88;;
28483;SDS011;15704;48.834;8.736;2022-09-02T08:36:55;2.92;;;1.60;;
28483;SDS011;15704;48.834;8.736;2022-09-02T08:40:39;1.77;;;1.25;;
28483;SDS011;15704;48.834;8.736;2022-09-02T08:44:23;3.95;;;1.40;;
28483;SDS011;15704;48.834;8.736;2022-09-02T08:48:10;4.22;;;1.23;;
28483;SDS011;15704;48.834;8.736;2022-09-02T08:52:03;3.15;;;1.48;;
28483;SDS011;15704;48.834;8.736;2022-09-02T08:55:49;2.22;;;1.40;;
28483;SDS011;15704;48.834;8.736;2022-09-02T08:59:35;11.25;;;1.70;;
28483;SDS011;15704;48.834;8.736;2022-09-02T09:03:26;1.98;;;1.20;;
28483;SDS011;15704;48.834;8.736;2022-09-02T09:07:19;1.95;;;0.95;;
28483;SDS011;15704;48.834;8.736;2022-09-02T09:11:12;3.40;;;1.30;;
28483;SDS011;15704;48.834;8.736;2022-09-02T09:15:02;1.58;;;1.10;;
28483;SDS011;15704;48.834;8.736;2022-09-02T09:18:53;3.47;;;1.30;;
28483;SDS011;15704;48.834;8.736;2022-09-02T09:22:46;2.22;;;1.10;;
28483;SDS011;15704;48.834;8.736;2022-09-02T09:26:54;2.88;;;1.00;;
28483;SDS011;15704;48.834;8.736;2022-09-02T09:30:39;1.90;;;1.20;;
28483;SDS011;15704;48.834;8.736;2022-09-02T09:34:23;2.70;;;1.20;;
28483;SDS011;15704;48.834;8.736;2022-09-02T09:38:27;2.22;;;1.05;;
28483;SDS011;15704;48.834;8.736;2022-09-02T09:42:12;2.50;;;1.05;;
28483;SDS011;15704;48.834;8.736;2022-09-02T09:45:57;1.58;;;1.10;;
28483;SDS011;15704;48.834;8.736;2022-09-02T09:49:41;1.30;;;0.95;;
28483;SDS011;15704;48.834;8.736;2022-09-02T09:53:24;2.25;;;1.35;;
28483;SDS011;15704;48.834;8.736;2022-09-02T09:57:13;2.50;;;1.02;;
28483;SDS011;15704;48.834;8.736;2022-09-02T10:01:09;2.67;;;1.17;;
28483;SDS011;15704;48.834;8.736;2022-09-02T10:05:08;1.40;;;0.98;;
28483;SDS011;15704;48.834;8.736;2022-09-02T10:08:53;2.92;;;1.02;;
28483;SDS011;15704;48.834;8.736;2022-09-02T10:12:37;3.85;;;1.52;;
28483;SDS011;15704;48.834;8.736;2022-09-02T10:20:28;7.90;;;1.17;;
28483;SDS011;15704;48.834;8.736;2022-09-02T10:24:45;1.75;;;1.00;;
28483;SDS011;15704;48.834;8.736;2022-09-02T10:33:02;1.38;;;1.00;;
28483;SDS011;15704;48.834;8.736;2022-09-02T10:37:04;5.47;;;1.20;;
28483;SDS011;15704;48.834;8.736;2022-09-02T10:40:54;6.90;;;1.38;;
28483;SDS011;15704;48.834;8.736;2022-09-02T10:44:42;3.22;;;1.35;;
28483;SDS011;15704;48.834;8.736;2022-09-02T10:48:41;2.75;;;1.00;;
28483;SDS011;15704;48.834;8.736;2022-09-02T10:52:44;3.03;;;1.00;;
28483;SDS011;15704;48.834;8.736;2022-09-02T10:56:37;1.70;;;1.20;;
28483;SDS011;15704;48.834;8.736;2022-09-02T11:00:27;2.90;;;1.30;;
28483;SDS011;15704;48.834;8.736;2022-09-02T11:04:12;3.17;;;1.17;;
28483;SDS011;15704;48.834;8.736;2022-09-02T11:08:06;1.35;;;1.00;;
28483;SDS011;15704;48.834;8.736;2022-09-02T11:11:54;2.40;;;1.05;;
28483;SDS011;15704;48.834;8.736;2022-09-02T11:15:42;2.55;;;1.30;;
28483;SDS011;15704;48.834;8.736;2022-09-02T11:19:31;2.03;;;0.93;;
28483;SDS011;15704;48.834;8.736;2022-09-02T11:23:21;18.25;;;1.33;;
28483;SDS011;15704;48.834;8.736;2022-09-02T11:27:11;2.90;;;1.20;;
28483;SDS011;15704;48.834;8.736;2022-09-02T11:31:19;3.03;;;1.60;;
28483;SDS011;15704;48.834;8.736;2022-09-02T11:35:09;3.10;;;0.90;;
28483;SDS011;15704;48.834;8.736;2022-09-02T11:39:00;1.88;;;1.10;;
28483;SDS011;15704;48.834;8.736;2022-09-02T11:43:00;2.05;;;1.08;;
28483;SDS011;15704;48.834;8.736;2022-09-02T11:55:35;1.92;;;0.75;;
28483;SDS011;15704;48.834;8.736;2022-09-02T11:59:22;1.08;;;0.98;;
28483;SDS011;15704;48.834;8.736;2022-09-02T12:03:25;4.95;;;1.38;;
28483;SDS011;15704;48.834;8.736;2022-09-02T12:07:30;2.08;;;0.90;;
28483;SDS011;15704;48.834;8.736;2022-09-02T12:11:40;1.95;;;0.82;;
28483;SDS011;15704;48.834;8.736;2022-09-02T12:15:25;7.25;;;1.10;;
28483;SDS011;15704;48.834;8.736;2022-09-02T12:19:16;3.78;;;1.23;;
28483;SDS011;15704;48.834;8.736;2022-09-02T12:23:06;1.60;;;0.70;;
28483;SDS011;15704;48.834;8.736;2022-09-02T12:31:12;2.67;;;0.80;;
28483;SDS011;15704;48.834;8.736;2022-09-02T12:35:07;8.98;;;0.80;;
28483;SDS011;15704;48.834;8.736;2022-09-02T12:38:52;1.75;;;0.80;;
28483;SDS011;15704;48.834;8.736;2022-09-02T12:42:36;1.55;;;1.00;;
28483;SDS011;15704;48.834;8.736;2022-09-02T12:46:31;2.00;;;1.08;;
28483;SDS011;15704;48.834;8.736;2022-09-02T12:50:28;1.50;;;1.08;;
28483;SDS011;15704;48.834;8.736;2022-09-02T12:54:15;1.38;;;0.82;;
28483;SDS011;15704;48.834;8.736;2022-09-02T12:58:06;3.00;;;0.80;;
28483;SDS011;15704;48.834;8.736;2022-09-02T13:01:56;7.93;;;1.10;;
28483;SDS011;15704;48.834;8.736;2022-09-02T13:05:53;2.80;;;0.90;;
28483;SDS011;15704;48.834;8.736;2022-09-02T13:09:48;2.70;;;0.95;;
28483;SDS011;15704;48.834;8.736;2022-09-02T13:14:05;2.80;;;0.70;;
28483;SDS011;15704;48.834;8.736;2022-09-02T13:22:39;2.15;;;0.98;;
28483;SDS011;15704;48.834;8.736;2022-09-02T13:26:48;1.50;;;1.05;;
28483;SDS011;15704;48.834;8.736;2022-09-02T13:31:08;7.30;;;1.17;;
28483;SDS011;15704;48.834;8.736;2022-09-02T13:34:58;2.05;;;1.00;;
28483;SDS011;15704;48.834;8.736;2022-09-02T13:38:44;10.25;;;1.08;;
28483;SDS011;15704;48.834;8.736;2022-09-02T13:46:14;1.42;;;0.90;;
28483;SDS011;15704;48.834;8.736;2022-09-02T13:49:59;4.15;;;0.93;;
28483;SDS011;15704;48.834;8.736;2022-09-02T13:57:51;1.80;;;0.95;;
28483;SDS011;15704;48.834;8.736;2022-09-02T14:01:39;3.88;;;1.20;;
28483;SDS011;15704;48.834;8.736;2022-09-02T14:05:22;1.35;;;1.00;;
28483;SDS011;15704;48.834;8.736;2022-09-02T14:09:07;2.13;;;0.90;;
28483;SDS011;15704;48.834;8.736;2022-09-02T14:13:00;2.22;;;1.00;;
28483;SDS011;15704;48.834;8.736;2022-09-02T14:16:45;7.43;;;2.17;;
28483;SDS011;15704;48.834;8.736;2022-09-02T14:20:27;6.40;;;2.72;;
28483;SDS011;15704;48.834;8.736;2022-09-02T14:24:10;3.22;;;1.05;;
28483;SDS011;15704;48.834;8.736;2022-09-02T14:27:55;9.90;;;1.88;;
28483;SDS011;15704;48.834;8.736;2022-09-02T14:31:39;3.22;;;2.50;;
28483;SDS011;15704;48.834;8.736;2022-09-02T14:35:23;2.20;;;1.13;;
28483;SDS011;15704;48.834;8.736;2022-09-02T14:39:09;1.38;;;0.93;;
28483;SDS011;15704;48.834;8.736;2022-09-02T14:42:54;3.33;;;0.90;;
28483;SDS011;15704;48.834;8.736;2022-09-02T14:50:26;2.53;;;0.90;;
28483;SDS011;15704;48.834;8.736;2022-09-02T14:54:12;1.50;;;0.88;;
28483;SDS011;15704;48.834;8.736;2022-09-02T14:58:15;7.47;;;1.17;;
28483;SDS011;15704;48.834;8.736;2022-09-02T15:01:58;1.33;;;0.98;;
28483;SDS011;15704;48.834;8.736;2022-09-02T15:09:25;4.30;;;0.98;;
28483;SDS011;15704;48.834;8.736;2022-09-02T15:13:08;5.80;;;1.35;;
28483;SDS011;15704;48.834;8.736;2022-09-02T15:16:53;1.48;;;1.20;;
28483;SDS011;15704;48.834;8.736;2022-09-02T15:20:35;8.70;;;1.20;;
28483;SDS011;15704;48.834;8.736;2022-09-02T15:24:20;2.70;;;1.20;;
28483;SDS011;15704;48.834;8.736;2022-09-02T15:28:03;1.45;;;0.90;;
28483;SDS011;15704;48.834;8.736;2022-09-02T15:31:46;2.10;;;1.17;;
28483;SDS011;15704;48.834;8.736;2022-09-02T15:35:31;6.15;;;1.25;;
28483;SDS011;15704;48.834;8.736;2022-09-02T15:39:15;2.25;;;0.95;;
28483;SDS011;15704;48.834;8.736;2022-09-02T15:43:00;1.77;;;1.05;;
28483;SDS011;15704;48.834;8.736;2022-09-02T15:46:43;2.63;;;1.20;;
28483;SDS011;15704;48.834;8.736;2022-09-02T15:54:12;3.45;;;1.20;;
28483;SDS011;15704;48.834;8.736;2022-09-02T15:57:56;13.95;;;1.85;;
28483;SDS011;15704;48.834;8.736;2022-09-02T16:01:41;19.33;;;1.60;;
28483;SDS011;15704;48.834;8.736;2022-09-02T16:05:25;8.13;;;1.63;;
28483;SDS011;15704;48.834;8.736;2022-09-02T16:09:09;5.32;;;1.30;;
28483;SDS011;15704;48.834;8.736;2022-09-02T16:12:52;4.68;;;1.27;;
28483;SDS011;15704;48.834;8.736;2022-09-02T16:16:36;1.67;;;1.10;;
28483;SDS011;15704;48.834;8.736;2022-09-02T16:20:20;6.30;;;1.50;;
28483;SDS011;15704;48.834;8.736;2022-09-02T16:24:03;3.28;;;1.23;;
28483;SDS011;15704;48.834;8.736;2022-09-02T16:27:47;3.80;;;1.27;;
28483;SDS011;15704;48.834;8.736;2022-09-02T16:31:34;4.10;;;1.33;;
28483;SDS011;15704;48.834;8.736;2022-09-02T16:35:18;2.35;;;1.30;;
28483;SDS011;15704;48.834;8.736;2022-09-02T16:39:02;12.27;;;1.40;;
28483;SDS011;15704;48.834;8.736;2022-09-02T16:42:46;2.30;;;1.20;;
28483;SDS011;15704;48.834;8.736;2022-09-02T16:46:29;3.97;;;1.90;;
28483;SDS011;15704;48.834;8.736;2022-09-02T16:50:12;1.55;;;0.90;;
28483;SDS011;15704;48.834;8.736;2022-09-02T16:53:55;5.22;;;1.42;;
28483;SDS011;15704;48.834;8.736;2022-09-02T16:57:40;3.53;;;1.27;;
28483;SDS011;15704;48.834;8.736;2022-09-02T17:01:23;4.15;;;1.30;;
28483;SDS011;15704;48.834;8.736;2022-09-02T17:05:12;2.90;;;0.95;;
28483;SDS011;15704;48.834;8.736;2022-09-02T17:08:57;1.73;;;1.20;;
28483;SDS011;15704;48.834;8.736;2022-09-02T17:12:41;3.85;;;1.30;;
28483;SDS011;15704;48.834;8.736;2022-09-02T17:16:24;2.17;;;1.20;;
28483;SDS011;15704;48.834;8.736;2022-09-02T17:20:09;4.45;;;1.10;;
28483;SDS011;15704;48.834;8.736;2022-09-02T17:23:53;8.55;;;1.20;;
28483;SDS011;15704;48.834;8.736;2022-09-02T17:27:35;3.95;;;1.10;;
28483;SDS011;15704;48.834;8.736;2022-09-02T17:31:21;3.28;;;1.00;;
28483;SDS011;15704;48.834;8.736;2022-09-02T17:35:06;4.10;;;1.05;;
28483;SDS011;15704;48.834;8.736;2022-09-02T17:38:53;1.73;;;1.20;;
28483;SDS011;15704;48.834;8.736;2022-09-02T17:42:36;2.47;;;1.17;;
28483;SDS011;15704;48.834;8.736;2022-09-02T17:46:20;2.80;;;0.98;;
28483;SDS011;15704;48.834;8.736;2022-09-02T17:50:03;2.78;;;1.13;;
28483;SDS011;15704;48.834;8.736;2022-09-02T17:53:46;4.90;;;1.30;;
28483;SDS011;15704;48.834;8.736;2022-09-02T17:57:32;3.10;;;1.00;;
28483;SDS011;15704;48.834;8.736;2022-09-02T18:01:24;1.52;;;0.90;;
28483;SDS011;15704;48.834;8.736;2022-09-02T18:05:14;2.25;;;1.35;;
28483;SDS011;15704;48.834;8.736;2022-09-02T18:09:00;7.53;;;1.52;;
28483;SDS011;15704;48.834;8.736;2022-09-02T18:12:49;2.85;;;1.40;;
28483;SDS011;15704;48.834;8.736;2022-09-02T18:16:35;5.60;;;1.23;;
28483;SDS011;15704;48.834;8.736;2022-09-02T18:20:34;6.43;;;1.30;;
28483;SDS011;15704;48.834;8.736;2022-09-02T18:24:25;2.22;;;1.05;;
28483;SDS011;15704;48.834;8.736;2022-09-02T18:28:18;7.55;;;1.05;;
28483;SDS011;15704;48.834;8.736;2022-09-02T18:32:22;5.15;;;1.23;;
28483;SDS011;15704;48.834;8.736;2022-09-02T18:36:19;5.22;;;1.40;;
28483;SDS011;15704;48.834;8.736;2022-09-02T18:44:00;1.65;;;1.13;;
28483;SDS011;15704;48.834;8.736;2022-09-02T18:47:53;2.17;;;0.80;;
28483;SDS011;15704;48.834;8.736;2022-09-02T18:51:40;4.07;;;1.15;;
28483;SDS011;15704;48.834;8.736;2022-09-02T18:55:26;2.47;;;1.25;;
28483;SDS011;15704;48.834;8.736;2022-09-02T18:59:16;2.25;;;1.13;;
28483;SDS011;15704;48.834;8.736;2022-09-02T19:03:10;1.75;;;1.10;;
28483;SDS011;15704;48.834;8.736;2022-09-02T19:06:52;5.40;;;1.30;;
28483;SDS011;15704;48.834;8.736;2022-09-02T19:10:58;2.08;;;1.08;;
28483;SDS011;15704;48.834;8.736;2022-09-02T19:14:42;4.03;;;1.30;;
28483;SDS011;15704;48.834;8.736;2022-09-02T19:18:26;3.17;;;1.40;;
28483;SDS011;15704;48.834;8.736;2022-09-02T19:22:09;4.47;;;1.42;;
28483;SDS011;15704;48.834;8.736;2022-09-02T19:25:52;4.78;;;1.27;;
28483;SDS011;15704;48.834;8.736;2022-09-02T19:29:36;6.30;;;1.20;;
28483;SDS011;15704;48.834;8.736;2022-09-02T19:33:22;5.38;;;1.63;;
28483;SDS011;15704;48.834;8.736;2022-09-02T19:40:52;4.53;;;1.48;;
28483;SDS011;15704;48.834;8.736;2022-09-02T19:48:19;6.85;;;1.40;;
28483;SDS011;15704;48.834;8.736;2022-09-02T19:52:02;1.75;;;1.20;;
28483;SDS011;15704;48.834;8.736;2022-09-02T19:55:47;2.85;;;1.30;;
28483;SDS011;15704;48.834;8.736;2022-09-02T19:59:31;3.53;;;1.23;;
28483;SDS011;15704;48.834;8.736;2022-09-02T20:03:13;4.60;;;1.35;;
28483;SDS011;15704;48.834;8.736;2022-09-02T20:06:56;2.72;;;1.10;;
28483;SDS011;15704;48.834;8.736;2022-09-02T20:10:39;4.15;;;1.25;;
28483;SDS011;15704;48.834;8.736;2022-09-02T20:14:23;3.35;;;1.40;;
28483;SDS011;15704;48.834;8.736;2022-09-02T20:18:07;1.35;;;1.10;;
28483;SDS011;15704;48.834;8.736;2022-09-02T20:21:51;2.20;;;1.58;;
28483;SDS011;15704;48.834;8.736;2022-09-02T20:25:37;8.00;;;1.67;;
28483;SDS011;15704;48.834;8.736;2022-09-02T20:29:39;2.92;;;1.50;;
28483;SDS011;15704;48.834;8.736;2022-09-02T20:33:32;2.28;;;1.17;;
28483;SDS011;15704;48.834;8.736;2022-09-02T20:37:24;2.42;;;1.30;;
28483;SDS011;15704;48.834;8.736;2022-09-02T20:41:18;1.80;;;1.13;;
28483;SDS011;15704;48.834;8.736;2022-09-02T20:45:10;1.92;;;1.35;;
28483;SDS011;15704;48.834;8.736;2022-09-02T20:49:01;4.60;;;1.25;;
28483;SDS011;15704;48.834;8.736;2022-09-02T20:52:58;7.72;;;1.40;;
28483;SDS011;15704;48.834;8.736;2022-09-02T20:56:54;4.30;;;1.38;;
28483;SDS011;15704;48.834;8.736;2022-09-02T21:00:52;2.47;;;1.42;;
28483;SDS011;15704;48.834;8.736;2022-09-02T21:04:44;4.30;;;1.88;;
28483;SDS011;15704;48.834;8.736;2022-09-02T21:08:33;9.48;;;4.35;;
28483;SDS011;15704;48.834;8.736;2022-09-02T21:12:24;3.83;;;1.80;;
28483;SDS011;15704;48.834;8.736;2022-09-02T21:16:20;1.73;;;1.30;;
28483;SDS011;15704;48.834;8.736;2022-09-02T21:20:09;2.97;;;1.23;;
28483;SDS011;15704;48.834;8.736;2022-09-02T21:24:01;4.47;;;1.52;;
28483;SDS011;15704;48.834;8.736;2022-09-02T21:27:49;1.88;;;1.50;;
28483;SDS011;15704;48.834;8.736;2022-09-02T21:31:38;3.47;;;1.38;;
28483;SDS011;15704;48.834;8.736;2022-09-02T21:35:27;3.20;;;1.40;;
28483;SDS011;15704;48.834;8.736;2022-09-02T21:39:13;6.22;;;1.45;;
28483;SDS011;15704;48.834;8.736;2022-09-02T21:43:03;6.10;;;1.48;;
28483;SDS011;15704;48.834;8.736;2022-09-02T21:46:58;3.17;;;1.30;;
28483;SDS011;15704;48.834;8.736;2022-09-02T21:50:49;2.17;;;1.40;;
28483;SDS011;15704;48.834;8.736;2022-09-02T21:54:42;2.78;;;1.35;;
28483;SDS011;15704;48.834;8.736;2022-09-02T21:58:36;8.70;;;1.67;;
28483;SDS011;15704;48.834;8.736;2022-09-02T22:02:41;1.92;;;1.27;;
28483;SDS011;15704;48.834;8.736;2022-09-02T22:06:35;5.60;;;1.63;;
28483;SDS011;15704;48.834;8.736;2022-09-02T22:10:22;1.98;;;1.23;;
28483;SDS011;15704;48.834;8.736;2022-09-02T22:14:10;10.40;;;1.70;;
28483;SDS011;15704;48.834;8.736;2022-09-02T22:17:57;4.45;;;1.60;;
28483;SDS011;15704;48.834;8.736;2022-09-02T22:21:51;2.45;;;1.27;;
28483;SDS011;15704;48.834;8.736;2022-09-02T22:25:37;4.80;;;1.30;;
28483;SDS011;15704;48.834;8.736;2022-09-02T22:33:10;2.83;;;1.40;;
28483;SDS011;15704;48.834;8.736;2022-09-02T22:52:48;2.38;;;1.50;;
28483;SDS011;15704;48.834;8.736;2022-09-02T22:56:38;6.95;;;1.77;;
28483;SDS011;15704;48.834;8.736;2022-09-02T23:00:23;1.90;;;1.77;;
28483;SDS011;15704;48.834;8.736;2022-09-02T23:04:12;5.78;;;1.80;;
28483;SDS011;15704;48.834;8.736;2022-09-02T23:08:15;6.07;;;1.83;;
28483;SDS011;15704;48.834;8.736;2022-09-02T23:12:03;3.00;;;1.73;;
28483;SDS011;15704;48.834;8.736;2022-09-02T23:15:56;3.97;;;1.83;;
28483;SDS011;15704;48.834;8.736;2022-09-02T23:19:47;4.00;;;2.20;;
28483;SDS011;15704;48.834;8.736;2022-09-02T23:23:53;4.95;;;1.92;;
28483;SDS011;15704;48.834;8.736;2022-09-02T23:27:43;3.30;;;1.70;;
28483;SDS011;15704;48.834;8.736;2022-09-02T23:31:35;6.25;;;1.70;;
28483;SDS011;15704;48.834;8.736;2022-09-02T23:35:34;5.35;;;2.13;;
28483;SDS011;15704;48.834;8.736;2022-09-02T23:39:31;2.85;;;1.80;;
28483;SDS011;15704;48.834;8.736;2022-09-02T23:43:30;2.95;;;2.30;;
28483;SDS011;15704;48.834;8.736;2022-09-02T23:47:18;5.00;;;2.00;;
28483;SDS011;15704;48.834;8.736;2022-09-02T23:51:18;3.17;;;2.28;;
28483;SDS011;15704;48.834;8.736;2022-09-02T23:55:11;3.47;;;1.92;;
28483;SDS011;15704;48.834;8.736;2022-09-02T23:59:05;4.82;;;2.35;;
